Airfield :
LOGIN :

Register | Disclaimer

   EN    FR    IT 

 










Legend :    VFR   Marginal VFR   IFR   Intensive IFR   Very Intensive IFR
Visi :
Ceiling :
>= 8 km
>= 3000ft
5 to 8 km
1000 to 3000 ft
1500m to 5 km
500 to 1000 ft
800 to 1500m
200 to 500 ft
< 800m
< 200 ft
Symbols :   Thunderstorms  Fog  Heavy snow  Heavy precipitations  Wind > 20 kt
SIGMETs :     Misc.  Thunderstorms  Icing  Turbulence  Mountain Waves  Volcanic Ashes







- Airport Elevation : 74 ft
- IATA code : EIN


EHEH - Eindhoven

CURRENT METAR :
  • 160155Z AUTO 20007KT 9999 NCD 16/13 Q1017 BLU

EXPIRED METARs :
  • 160125Z AUTO 20006KT 9999 NCD 16/14 Q1017 BLU
  • 160055Z AUTO 18007KT 9999 NCD 16/14 Q1018 BLU
  • 160025Z AUTO 17006KT 9999 NCD 16/14 Q1018 BLU
  • 152355Z AUTO 19004KT 9999 NCD 15/14 Q1018 BLU
  • 152325Z AUTO 18006KT 9999 NCD 16/14 Q1018 BLU

TAF TAF EHEH
Valid from the 16 at 00:00 until the 17 at 06:00 UTC


152302Z 1600/1706 19006KT CAVOK
BECMG 1606/1609 21007G17KT
BECMG 1617/1619 30007KT
PROB30
TEMPO 1702/1706 4000 SHRA TSRA FEW012 SCT030 SCT060CB BKN070
BECMG 1703/1706 VRB03KT
No reported NOTAMs for that airfield.



MET'MAP, your aeronautical weather chart ! - Copyright ORBIFLY December 2007 - Disclaimer

ORBIFLY MET'MAP TEAM :

Programming & Development : Alexandra Zaïnal
Concept & Development : Baudouin d'Aumeries
Co-Development & Prog : Marc-Olivier Méhu
Technical & hardware support : Manuel Goepfert

Contact : metmap@orbifly.com




SOURCES & CREDITS :

   NOAA